Humidity-temperature Sensor

Selected Measurement Type: Relative Humidity

 
Relative Humidity [%]     6 entries per hour
Showing data from 3/5/2022 (00:00:00 Z) to 2/26/2022 (00:01:00 Z)
Previous Next [ Day | 3-Days | 7-Days ]
First Last
Prev [ Day | 3-Days | 7-Days ] Next
First Last

Start Time:     :
End Time:     :     
Time (in GMT) :00 :50 :40 :30 :20 :10
Previous Next [ Day | 3-Days | 7-Days ]
First Last
Prev [ Day | 3-Days | 7-Days ] Next
First Last


123 => good data
MM => data is determined as missing
-- => data not received/configured
Back to Top Back to Top
3/5/2022 00:00 to 23:10 89.61 89.14 89.71 89.34 89.07 89.14
3/4/2022 23:00 to 22:10 89.49 89.49 89.26 88.62 88.81 89.53
3/4/2022 22:00 to 21:10 90.27 90.43 90.10 89.92 90.27 89.69
3/4/2022 21:00 to 20:10 90.70 90.56 89.92 90.41 91.16 90.95
3/4/2022 20:00 to 19:10 90.70 91.24 91.09 91.24 91.75 91.07
3/4/2022 19:00 to 18:10 90.41 90.37 90.54 90.25 90.04 89.88
3/4/2022 18:00 to 17:10 90.23 90.85 90.93 90.52 90.43 90.50
3/4/2022 17:00 to 16:10 90.45 91.30 90.56 89.57 90.02 90.15
3/4/2022 16:00 to 15:10 91.07 91.32 91.55 91.73 91.05 90.66
3/4/2022 15:00 to 14:10 91.69 92.87 93.13 92.39 92.17 91.24
3/4/2022 14:00 to 13:10 90.66 92.02 91.90 92.25 92.68 93.42
3/4/2022 13:00 to 12:10 93.71 93.59 93.79 93.49 93.38 93.36
3/4/2022 12:00 to 11:10 93.28 93.38 92.93 92.72 92.91 92.80
3/4/2022 11:00 to 10:10 93.09 92.50 93.11 93.53 92.99 92.29
3/4/2022 10:00 to 9:10 91.94 92.10 92.10 92.29 92.56 92.80
3/4/2022 09:00 to 8:10 93.36 93.57 93.38 93.28 93.77 93.63
3/4/2022 08:00 to 7:10 93.32 93.55 93.53 93.01 92.76 92.60
3/4/2022 07:00 to 6:10 92.08 92.58 93.30 93.46 92.85 93.51
3/4/2022 06:00 to 5:10 93.65 93.05 93.20 93.42 93.84 92.52
3/4/2022 05:00 to 4:10 92.47 91.77 91.61 90.17 89.63 89.36
3/4/2022 04:00 to 3:10 89.11 89.16 88.85 89.32 89.28 89.07
3/4/2022 03:00 to 2:10 88.87 88.52 89.14 88.99 89.05 88.85
3/4/2022 02:00 to 1:10 88.50 88.74 88.58 88.27 87.90 87.59
3/4/2022 01:00 to 0:10 87.42 88.17 88.35 87.65 88.00 88.00
3/4/2022 00:00 to 23:10 87.57 87.94 87.90 88.29 88.23 88.43
3/3/2022 23:00 to 22:10 89.03 89.14 89.53 89.46 89.32 89.22
3/3/2022 22:00 to 21:10 88.78 88.17 88.83 89.11 89.38 89.46
3/3/2022 21:00 to 20:10 89.71 89.61 89.77 89.98 89.59 89.05
3/3/2022 20:00 to 19:10 88.97 89.63 89.36 89.88 90.10 90.29
3/3/2022 19:00 to 18:10 90.43 89.75 89.77 89.96 89.51 89.38
3/3/2022 18:00 to 17:10 89.18 88.76 88.70 88.81 88.41 87.77
3/3/2022 17:00 to 16:10 88.10 88.39 88.74 89.26 89.96 88.83
3/3/2022 16:00 to 15:10 89.82 90.21 90.74 90.50 90.50 91.22
3/3/2022 15:00 to 14:10 91.16 91.59 91.42 91.16 91.98 92.33
3/3/2022 14:00 to 13:10 92.19 92.62 93.20 94.08 93.96 93.73
3/3/2022 13:00 to 12:10 93.63 93.40 93.59 93.49 93.38 93.38
3/3/2022 12:00 to 11:10 93.40 93.30 93.24 92.99 92.99 93.01
3/3/2022 11:00 to 10:10 92.97 92.68 92.45 92.10 91.79 91.57
3/3/2022 10:00 to 9:10 91.42 91.51 91.16 91.26 91.09 91.28
3/3/2022 09:00 to 8:10 91.32 91.38 91.55 91.09 90.64 90.64
3/3/2022 08:00 to 7:10 90.56 90.89 90.25 90.35 90.35 90.48
3/3/2022 07:00 to 6:10 90.17 89.92 89.59 89.98 89.55 89.34
3/3/2022 06:00 to 5:10 90.10 89.96 90.15 90.17 89.84 89.38
3/3/2022 05:00 to 4:10 89.75 89.61 89.53 89.20 89.63 89.42
3/3/2022 04:00 to 3:10 88.54 89.57 89.14 89.44 89.09 89.14
3/3/2022 03:00 to 2:10 89.20 89.09 89.36 89.24 88.08 88.04
3/3/2022 02:00 to 1:10 87.40 86.64 86.27 86.37 85.92 85.42
3/3/2022 01:00 to 0:10 85.16 85.40 85.14 84.43 85.18 84.99
3/3/2022 00:00 to 23:10 85.90 86.41 86.58 85.55 85.77 85.28
3/2/2022 23:00 to 22:10 85.65 85.67 85.28 86.31 86.60 86.58
3/2/2022 22:00 to 21:10 86.50 86.04 85.71 85.92 86.33 86.58
3/2/2022 21:00 to 20:10 85.98 85.80 85.49 85.90 86.25 86.68
3/2/2022 20:00 to 19:10 86.97 87.77 85.82 86.29 86.89 86.54
3/2/2022 19:00 to 18:10 86.33 87.11 86.68 88.29 88.56 87.92
3/2/2022 18:00 to 17:10 88.43 88.74 88.15 88.08 87.61 88.17
3/2/2022 17:00 to 16:10 87.63 87.73 86.62 87.57 87.03 86.87
3/2/2022 16:00 to 15:10 86.37 86.87 86.50 87.40 87.22 87.69
3/2/2022 15:00 to 14:10 87.77 89.05 89.05 89.05 88.91 88.97
3/2/2022 14:00 to 13:10 89.01 88.99 88.99 89.44 90.15 89.63
3/2/2022 13:00 to 12:10 89.69 89.05 88.54 87.67 88.25 88.27
3/2/2022 12:00 to 11:10 89.26 89.28 89.96 90.48 90.62 90.27
3/2/2022 11:00 to 10:10 90.43 90.56 91.01 90.58 90.19 90.04
3/2/2022 10:00 to 9:10 89.90 90.37 89.96 89.65 89.65 88.60
3/2/2022 09:00 to 8:10 89.51 89.26 88.68 88.60 88.99 88.74
3/2/2022 08:00 to 7:10 88.58 88.17 88.37 87.90 87.14 87.59
3/2/2022 07:00 to 6:10 88.15 88.25 88.89 89.57 89.32 89.14
3/2/2022 06:00 to 5:10 88.54 89.09 89.22 90.74 90.43 89.38
3/2/2022 05:00 to 4:10 89.46 90.41 90.62 89.73 90.23 89.63
3/2/2022 04:00 to 3:10 89.88 89.77 90.29 89.90 89.11 88.64
3/2/2022 03:00 to 2:10 88.66 89.01 89.30 87.44 87.49 87.36
3/2/2022 02:00 to 1:10 87.28 86.91 86.08 88.10 87.40 87.42
3/2/2022 01:00 to 0:10 87.42 87.88 87.44 87.40 87.73 87.80
3/2/2022 00:00 to 23:10 88.56 88.45 90.17 88.58 89.49 89.59
3/1/2022 23:00 to 22:10 89.59 89.55 89.94 89.53 89.57 90.12
3/1/2022 22:00 to 21:10 90.81 91.63 91.77 92.00 92.47 90.54
3/1/2022 21:00 to 20:10 91.53 90.78 90.66 90.35 90.50 89.30
3/1/2022 20:00 to 19:10 89.75 90.43 92.04 94.45 95.44 98.08
3/1/2022 19:00 to 18:10 98.33 96.68 94.87 92.68 87.65 86.70
3/1/2022 18:00 to 17:10 86.97 86.68 87.65 86.99 86.17 86.60
3/1/2022 17:00 to 16:10 85.98 86.04 85.90 85.28 85.28 86.21
3/1/2022 16:00 to 15:10 85.80 85.49 85.55 86.39 86.27 87.98
3/1/2022 15:00 to 14:10 89.75 90.58 89.86 89.65 90.35 91.03
3/1/2022 14:00 to 13:10 90.97 90.48 89.16 88.78 88.99 88.85
3/1/2022 13:00 to 12:10 88.56 88.83 88.78 88.45 88.39 88.00
3/1/2022 12:00 to 11:10 87.92 88.17 89.36 89.32 88.97 88.78
3/1/2022 11:00 to 10:10 88.43 88.06 87.84 88.12 88.72 87.88
3/1/2022 10:00 to 9:10 87.92 88.72 89.67 88.70 87.98 88.87
3/1/2022 09:00 to 8:10 89.42 89.18 87.55 87.32 88.02 88.27
3/1/2022 08:00 to 7:10 88.81 89.94 89.82 89.32 89.63 89.07
3/1/2022 07:00 to 6:10 89.24 89.34 88.17 88.41 88.68 88.33
3/1/2022 06:00 to 5:10 88.54 88.31 87.75 86.74 88.19 88.29
3/1/2022 05:00 to 4:10 87.96 87.63 87.63 88.68 88.64 88.70
3/1/2022 04:00 to 3:10 88.23 87.42 88.43 88.33 88.52 88.72
3/1/2022 03:00 to 2:10 89.65 88.78 88.62 87.94 87.80 86.60
3/1/2022 02:00 to 1:10 86.58 86.21 85.96 87.32 87.53 87.34
3/1/2022 01:00 to 0:10 87.32 86.54 85.42 85.73 86.19 86.52
3/1/2022 00:00 to 23:10 85.49 85.59 87.63 86.58 87.18 86.95
2/28/2022 23:00 to 22:10 87.05 86.50 86.83 86.43 86.62 87.07
2/28/2022 22:00 to 21:10 85.55 86.04 88.39 87.86 88.70 89.55
2/28/2022 21:00 to 20:10 89.11 88.54 89.38 89.79 89.92 88.78
2/28/2022 20:00 to 19:10 88.06 89.57 89.05 90.00 89.84 89.36
2/28/2022 19:00 to 18:10 88.95 89.73 88.64 88.02 88.25 88.48
2/28/2022 18:00 to 17:10 89.28 89.16 90.12 89.55 89.55 88.95
2/28/2022 17:00 to 16:10 88.99 90.08 89.94 89.38 90.64 90.99
2/28/2022 16:00 to 15:10 90.52 90.04 89.71 91.53 91.05 89.82
2/28/2022 15:00 to 14:10 89.88 91.05 92.31 92.27 91.94 91.34
2/28/2022 14:00 to 13:10 90.56 90.35 91.11 91.46 90.83 91.34
2/28/2022 13:00 to 12:10 91.53 91.13 91.20 91.13 90.81 89.61
2/28/2022 12:00 to 11:10 90.83 91.32 91.01 90.60 89.57 89.20
2/28/2022 11:00 to 10:10 89.69 89.65 89.98 90.17 89.88 89.98
2/28/2022 10:00 to 9:10 90.62 91.96 91.53 91.03 91.18 91.86
2/28/2022 09:00 to 8:10 91.42 91.49 91.11 90.91 90.78 90.15
2/28/2022 08:00 to 7:10 89.96 89.59 90.60 90.58 89.94 89.57
2/28/2022 07:00 to 6:10 89.18 90.48 90.54 89.65 89.22 89.03
2/28/2022 06:00 to 5:10 89.05 89.92 89.90 90.06 90.48 90.64
2/28/2022 05:00 to 4:10 90.12 89.32 87.98 87.11 88.45 91.71
2/28/2022 04:00 to 3:10 90.31 91.55 92.39 92.15 92.17 92.97
2/28/2022 03:00 to 2:10 93.71 90.68 90.29 89.55 89.65 89.28
2/28/2022 02:00 to 1:10 88.85 89.11 88.43 88.45 89.42 88.99
2/28/2022 01:00 to 0:10 89.42 88.81 88.76 90.48 90.91 88.10
2/28/2022 00:00 to 23:10 85.96 86.60 87.86 86.89 86.68 87.73
2/27/2022 23:00 to 22:10 87.11 87.47 86.64 86.27 85.84 85.51
2/27/2022 22:00 to 21:10 86.19 85.36 85.26 86.54 86.35 85.30
2/27/2022 21:00 to 20:10 86.70 86.78 86.48 88.02 87.67 87.14
2/27/2022 20:00 to 19:10 86.97 86.70 87.09 87.24 85.77 86.76
2/27/2022 19:00 to 18:10 85.94 85.30 86.83 86.54 86.02 86.41
2/27/2022 18:00 to 17:10 86.89 84.52 85.73 86.78 87.03 86.81
2/27/2022 17:00 to 16:10 87.57 90.93 91.11 90.91 92.47 94.41
2/27/2022 16:00 to 15:10 95.53 96.35 96.50 95.30 89.34 89.96
2/27/2022 15:00 to 14:10 89.84 89.49 89.92 89.69 89.32 88.89
2/27/2022 14:00 to 13:10 89.36 88.91 87.96 87.26 88.52 88.72
2/27/2022 13:00 to 12:10 89.51 88.25 88.43 88.89 88.58 89.07
2/27/2022 12:00 to 11:10 88.70 89.18 88.81 87.69 87.77 87.32
2/27/2022 11:00 to 10:10 87.40 87.05 88.12 89.16 88.68 88.58
2/27/2022 10:00 to 9:10 89.20 88.97 88.87 88.12 87.36 87.01
2/27/2022 09:00 to 8:10 88.08 89.77 89.42 89.49 90.35 91.05
2/27/2022 08:00 to 7:10 90.72 91.18 91.94 91.69 88.66 87.80
2/27/2022 07:00 to 6:10 92.10 92.12 91.51 90.12 88.76 87.73
2/27/2022 06:00 to 5:10 88.66 89.05 89.55 90.19 91.59 93.63
2/27/2022 05:00 to 4:10 95.30 93.42 90.81 89.30 89.16 88.87
2/27/2022 04:00 to 3:10 89.20 89.22 89.30 88.68 89.75 90.50
2/27/2022 03:00 to 2:10 88.62 88.31 89.01 88.97 88.78 88.97
2/27/2022 02:00 to 1:10 89.26 90.62 91.09 93.34 93.65 94.41
2/27/2022 01:00 to 0:10 91.07 85.34 86.29 88.87 88.99 86.93
2/27/2022 00:00 to 23:10 87.09 87.20 86.91 85.67 85.28 85.28
2/26/2022 23:00 to 22:10 85.51 85.55 85.18 85.07 85.20 84.70
2/26/2022 22:00 to 21:10 86.19 85.77 85.88 86.10 86.04 85.65
2/26/2022 21:00 to 20:10 84.87 86.64 86.76 86.95 86.19 85.05
2/26/2022 20:00 to 19:10 84.54 84.74 84.85 85.24 85.80 85.30
2/26/2022 19:00 to 18:10 85.53 85.01 84.85 85.69 84.93 86.08
2/26/2022 18:00 to 17:10 84.58 83.96 86.93 85.61 86.23 84.70
2/26/2022 17:00 to 16:10 85.44 85.22 84.83 85.12 84.58 84.31
2/26/2022 16:00 to 15:10 84.62 86.19 86.78 87.63 87.59 87.80
2/26/2022 15:00 to 14:10 87.18 87.05 88.54 87.82 86.15 85.26
2/26/2022 14:00 to 13:10 86.19 86.17 85.92 85.77 86.81 87.42
2/26/2022 13:00 to 12:10 87.16 86.43 86.48 85.75 86.02 86.10
2/26/2022 12:00 to 11:10 85.94 87.40 86.35 85.92 86.37 87.32
2/26/2022 11:00 to 10:10 87.14 86.31 85.51 85.53 85.84 84.79
2/26/2022 10:00 to 9:10 84.46 84.43 85.18 85.24 85.94 86.04
2/26/2022 09:00 to 8:10 86.02 85.01 86.52 86.52 86.43 86.21
2/26/2022 08:00 to 7:10 86.64 86.15 85.05 84.85 85.22 85.01
2/26/2022 07:00 to 6:10 85.34 85.40 84.76 85.69 85.69 86.72
2/26/2022 06:00 to 5:10 86.43 84.31 85.40 86.08 85.44 86.50
2/26/2022 05:00 to 4:10 85.98 84.66 84.60 85.36 84.29 83.42
2/26/2022 04:00 to 3:10 84.02 84.31 84.79 84.72 84.10 84.08
2/26/2022 03:00 to 2:10 84.41 84.08 83.71 83.61 84.13 84.68
2/26/2022 02:00 to 1:10 84.41 84.54 85.03 85.16 84.91 85.26
2/26/2022 01:00 to 0:10 85.73 85.24 84.68 84.23 84.35 84.25